sensor_id;sensor_type;location;lat;lon;timestamp;pressure;altitude;pressure_sealevel;temperature;humidity
63739;BME280;68816;45.558;10.070;2023-09-08T00:01:59;100421.53;;;24.04;51.82
63739;BME280;68816;45.558;10.070;2023-09-08T00:04:24;100419.97;;;23.98;53.16
63739;BME280;68816;45.558;10.070;2023-09-08T00:06:50;100420.28;;;23.97;52.41
63739;BME280;68816;45.558;10.070;2023-09-08T00:09:15;100417.47;;;23.83;52.34
63739;BME280;68816;45.558;10.070;2023-09-08T00:11:41;100415.50;;;23.70;53.33
63739;BME280;68816;45.558;10.070;2023-09-08T00:14:06;100421.97;;;23.84;52.74
63739;BME280;68816;45.558;10.070;2023-09-08T00:16:31;100417.88;;;23.90;52.86
63739;BME280;68816;45.558;10.070;2023-09-08T00:18:57;100412.44;;;23.66;53.16
63739;BME280;68816;45.558;10.070;2023-09-08T00:21:24;100408.88;;;23.88;52.56
63739;BME280;68816;45.558;10.070;2023-09-08T00:23:51;100411.09;;;23.78;53.20
63739;BME280;68816;45.558;10.070;2023-09-08T00:26:16;100409.81;;;23.84;52.64
63739;BME280;68816;45.558;10.070;2023-09-08T00:28:42;100396.84;;;23.96;52.11
63739;BME280;68816;45.558;10.070;2023-09-08T00:31:07;100394.97;;;23.78;53.02
63739;BME280;68816;45.558;10.070;2023-09-08T00:33:34;100399.34;;;23.84;53.01
63739;BME280;68816;45.558;10.070;2023-09-08T00:35:59;100402.72;;;23.86;52.50
63739;BME280;68816;45.558;10.070;2023-09-08T00:38:25;100384.50;;;23.92;52.62
63739;BME280;68816;45.558;10.070;2023-09-08T00:40:51;100388.88;;;23.98;52.31
63739;BME280;68816;45.558;10.070;2023-09-08T00:43:17;100393.78;;;24.06;52.21
63739;BME280;68816;45.558;10.070;2023-09-08T00:45:43;100385.34;;;23.79;52.71
63739;BME280;68816;45.558;10.070;2023-09-08T00:48:09;100388.06;;;23.84;52.54
63739;BME280;68816;45.558;10.070;2023-09-08T00:50:36;100392.91;;;23.70;52.92
63739;BME280;68816;45.558;10.070;2023-09-08T00:53:03;100392.91;;;23.70;53.10
63739;BME280;68816;45.558;10.070;2023-09-08T00:55:29;100389.75;;;23.71;52.35
63739;BME280;68816;45.558;10.070;2023-09-08T00:57:54;100393.72;;;23.84;52.64
63739;BME280;68816;45.558;10.070;2023-09-08T01:00:20;100391.66;;;23.76;53.70
63739;BME280;68816;45.558;10.070;2023-09-08T01:02:45;100384.81;;;23.77;52.99
63739;BME280;68816;45.558;10.070;2023-09-08T01:05:11;100378.13;;;23.87;52.27
63739;BME280;68816;45.558;10.070;2023-09-08T01:07:39;100388.47;;;23.91;52.75
63739;BME280;68816;45.558;10.070;2023-09-08T01:10:06;100385.78;;;23.72;53.36
63739;BME280;68816;45.558;10.070;2023-09-08T01:12:32;100387.66;;;23.77;53.64
63739;BME280;68816;45.558;10.070;2023-09-08T01:15:04;100383.44;;;23.88;53.24
63739;BME280;68816;45.558;10.070;2023-09-08T01:17:30;100389.50;;;23.95;53.04
63739;BME280;68816;45.558;10.070;2023-09-08T01:19:59;100383.00;;;23.95;52.89
63739;BME280;68816;45.558;10.070;2023-09-08T01:25:09;100385.34;;;23.93;53.38
63739;BME280;68816;45.558;10.070;2023-09-08T01:27:40;100380.13;;;23.86;53.52
63739;BME280;68816;45.558;10.070;2023-09-08T01:30:07;100381.38;;;23.80;53.07
63739;BME280;68816;45.558;10.070;2023-09-08T01:32:33;100375.31;;;23.87;52.80
63739;BME280;68816;45.558;10.070;2023-09-08T01:34:59;100377.59;;;23.71;53.90
63739;BME280;68816;45.558;10.070;2023-09-08T01:37:25;100375.31;;;23.73;53.45
63739;BME280;68816;45.558;10.070;2023-09-08T01:39:51;100376.56;;;23.67;54.17
63739;BME280;68816;45.558;10.070;2023-09-08T01:42:16;100377.00;;;23.74;53.80
63739;BME280;68816;45.558;10.070;2023-09-08T01:44:42;100374.69;;;23.76;54.11
63739;BME280;68816;45.558;10.070;2023-09-08T01:47:07;100368.50;;;23.88;53.60
63739;BME280;68816;45.558;10.070;2023-09-08T01:49:33;100364.75;;;23.79;53.92
63739;BME280;68816;45.558;10.070;2023-09-08T01:51:58;100365.59;;;23.79;53.71
63739;BME280;68816;45.558;10.070;2023-09-08T01:54:24;100359.81;;;23.84;53.35
63739;BME280;68816;45.558;10.070;2023-09-08T01:56:49;100360.28;;;23.64;54.46
63739;BME280;68816;45.558;10.070;2023-09-08T01:59:16;100360.06;;;23.74;54.03
63739;BME280;68816;45.558;10.070;2023-09-08T02:01:42;100359.44;;;23.63;55.07
63739;BME280;68816;45.558;10.070;2023-09-08T02:04:07;100358.81;;;23.53;54.99
63739;BME280;68816;45.558;10.070;2023-09-08T02:06:33;100362.78;;;23.52;55.42
63739;BME280;68816;45.558;10.070;2023-09-08T02:08:58;100355.47;;;23.51;55.35
63739;BME280;68816;45.558;10.070;2023-09-08T02:11:23;100359.50;;;23.45;55.39
63739;BME280;68816;45.558;10.070;2023-09-08T02:13:49;100350.78;;;23.46;55.34
63739;BME280;68816;45.558;10.070;2023-09-08T02:16:15;100358.81;;;23.53;55.60
63739;BME280;68816;45.558;10.070;2023-09-08T02:18:44;100352.84;;;23.41;55.22
63739;BME280;68816;45.558;10.070;2023-09-08T02:21:10;100359.75;;;23.62;55.01
63739;BME280;68816;45.558;10.070;2023-09-08T02:23:35;100352.84;;;23.68;54.48
63739;BME280;68816;45.558;10.070;2023-09-08T02:26:01;100358.81;;;23.53;55.34
63739;BME280;68816;45.558;10.070;2023-09-08T02:28:27;100353.78;;;23.50;56.07
63739;BME280;68816;45.558;10.070;2023-09-08T02:30:53;100354.72;;;23.59;56.42
63739;BME280;68816;45.558;10.070;2023-09-08T02:33:18;100356.50;;;23.55;56.83
63739;BME280;68816;45.558;10.070;2023-09-08T02:35:44;100350.00;;;23.41;57.74
63739;BME280;68816;45.558;10.070;2023-09-08T02:38:09;100351.66;;;23.42;58.90
63739;BME280;68816;45.558;10.070;2023-09-08T02:40:35;100357.66;;;23.40;59.95
63739;BME280;68816;45.558;10.070;2023-09-08T02:43:01;100356.50;;;23.27;60.25
63739;BME280;68816;45.558;10.070;2023-09-08T02:45:26;100352.53;;;23.28;60.54
63739;BME280;68816;45.558;10.070;2023-09-08T02:47:52;100354.28;;;23.24;60.85
63739;BME280;68816;45.558;10.070;2023-09-08T02:50:18;100356.91;;;23.34;60.62
63739;BME280;68816;45.558;10.070;2023-09-08T02:52:43;100352.41;;;23.33;60.34
63739;BME280;68816;45.558;10.070;2023-09-08T02:55:09;100357.25;;;23.47;60.35
63739;BME280;68816;45.558;10.070;2023-09-08T02:57:35;100353.19;;;23.53;59.83
63739;BME280;68816;45.558;10.070;2023-09-08T03:00:00;100352.41;;;23.47;59.81
63739;BME280;68816;45.558;10.070;2023-09-08T03:02:26;100356.06;;;23.34;60.07
63739;BME280;68816;45.558;10.070;2023-09-08T03:04:51;100350.44;;;23.34;60.58
63739;BME280;68816;45.558;10.070;2023-09-08T03:07:17;100353.25;;;23.48;59.49
63739;BME280;68816;45.558;10.070;2023-09-08T03:09:43;100352.94;;;23.63;59.92
63739;BME280;68816;45.558;10.070;2023-09-08T03:12:08;100361.72;;;23.48;60.21
63739;BME280;68816;45.558;10.070;2023-09-08T03:14:34;100356.28;;;23.38;60.09
63739;BME280;68816;45.558;10.070;2023-09-08T03:16:59;100354.19;;;23.43;59.00
63739;BME280;68816;45.558;10.070;2023-09-08T03:19:25;100345.41;;;23.45;57.75
63739;BME280;68816;45.558;10.070;2023-09-08T03:21:51;100346.66;;;23.39;57.37
63739;BME280;68816;45.558;10.070;2023-09-08T03:24:16;100342.88;;;23.43;56.42
63739;BME280;68816;45.558;10.070;2023-09-08T03:26:42;100347.28;;;23.35;56.45
63739;BME280;68816;45.558;10.070;2023-09-08T03:29:07;100346.84;;;23.42;56.28
63739;BME280;68816;45.558;10.070;2023-09-08T03:31:32;100345.81;;;23.38;56.57
63739;BME280;68816;45.558;10.070;2023-09-08T03:33:58;100336.84;;;23.22;56.95
63739;BME280;68816;45.558;10.070;2023-09-08T03:36:23;100340.41;;;23.28;56.98
63739;BME280;68816;45.558;10.070;2023-09-08T03:38:50;100344.56;;;23.30;56.58
63739;BME280;68816;45.558;10.070;2023-09-08T03:41:15;100344.97;;;23.10;56.91
63739;BME280;68816;45.558;10.070;2023-09-08T03:43:41;100336.72;;;23.14;57.58
63739;BME280;68816;45.558;10.070;2023-09-08T03:46:06;100332.34;;;23.21;57.20
63739;BME280;68816;45.558;10.070;2023-09-08T03:48:32;100328.16;;;23.32;57.37
63739;BME280;68816;45.558;10.070;2023-09-08T03:50:58;100331.41;;;23.26;57.42
63739;BME280;68816;45.558;10.070;2023-09-08T03:53:23;100337.75;;;23.31;57.64
63739;BME280;68816;45.558;10.070;2023-09-08T03:55:49;100337.16;;;23.34;58.04
63739;BME280;68816;45.558;10.070;2023-09-08T03:58:14;100336.63;;;23.32;57.75
63739;BME280;68816;45.558;10.070;2023-09-08T04:00:41;100336.66;;;23.46;57.84
63739;BME280;68816;45.558;10.070;2023-09-08T04:03:07;100340.81;;;23.49;58.09
63739;BME280;68816;45.558;10.070;2023-09-08T04:05:32;100342.38;;;23.55;57.43
63739;BME280;68816;45.558;10.070;2023-09-08T04:07:58;100336.63;;;23.60;57.94
63739;BME280;68816;45.558;10.070;2023-09-08T04:10:23;100338.91;;;23.44;57.76
63739;BME280;68816;45.558;10.070;2023-09-08T04:12:49;100331.28;;;23.31;58.30
63739;BME280;68816;45.558;10.070;2023-09-08T04:15:14;100341.31;;;23.37;58.19
63739;BME280;68816;45.558;10.070;2023-09-08T04:17:40;100334.72;;;23.42;58.24
63739;BME280;68816;45.558;10.070;2023-09-08T04:20:06;100342.09;;;23.56;57.28
63739;BME280;68816;45.558;10.070;2023-09-08T04:22:33;100330.97;;;23.60;57.80
63739;BME280;68816;45.558;10.070;2023-09-08T04:24:59;100336.25;;;23.53;58.17
63739;BME280;68816;45.558;10.070;2023-09-08T04:27:25;100336.31;;;23.48;58.50
63739;BME280;68816;45.558;10.070;2023-09-08T04:29:50;100335.19;;;23.49;59.23
63739;BME280;68816;45.558;10.070;2023-09-08T04:32:16;100339.06;;;23.53;59.30
63739;BME280;68816;45.558;10.070;2023-09-08T04:34:42;100335.47;;;23.47;60.22
63739;BME280;68816;45.558;10.070;2023-09-08T04:37:08;100336.66;;;23.46;60.38
63739;BME280;68816;45.558;10.070;2023-09-08T04:39:34;100342.50;;;23.50;60.70
63739;BME280;68816;45.558;10.070;2023-09-08T04:42:02;100339.97;;;23.48;61.02
63739;BME280;68816;45.558;10.070;2023-09-08T04:44:28;100337.50;;;23.47;61.11
63739;BME280;68816;45.558;10.070;2023-09-08T04:46:54;100335.38;;;23.39;61.53
63739;BME280;68816;45.558;10.070;2023-09-08T04:49:19;100343.84;;;23.39;61.72
63739;BME280;68816;45.558;10.070;2023-09-08T04:51:45;100352.53;;;23.28;62.01
63739;BME280;68816;45.558;10.070;2023-09-08T04:54:11;100343.94;;;23.33;61.97
63739;BME280;68816;45.558;10.070;2023-09-08T04:56:38;100346.88;;;23.28;62.42
63739;BME280;68816;45.558;10.070;2023-09-08T04:59:04;100349.06;;;23.31;62.59
63739;BME280;68816;45.558;10.070;2023-09-08T05:01:29;100358.06;;;23.33;62.50
63739;BME280;68816;45.558;10.070;2023-09-08T05:04:00;100357.41;;;23.37;61.40
63739;BME280;68816;45.558;10.070;2023-09-08T05:06:26;100358.97;;;23.43;61.29
63739;BME280;68816;45.558;10.070;2023-09-08T05:08:51;100354.59;;;23.37;61.59
63739;BME280;68816;45.558;10.070;2023-09-08T05:11:17;100363.78;;;23.42;61.30
63739;BME280;68816;45.558;10.070;2023-09-08T05:13:44;100357.75;;;23.49;60.41
63739;BME280;68816;45.558;10.070;2023-09-08T05:16:10;100362.38;;;23.58;60.29
63739;BME280;68816;45.558;10.070;2023-09-08T05:18:39;100368.84;;;23.59;60.61
63739;BME280;68816;45.558;10.070;2023-09-08T05:21:05;100365.94;;;23.64;59.71
63739;BME280;68816;45.558;10.070;2023-09-08T05:23:31;100360.47;;;23.54;60.20
63739;BME280;68816;45.558;10.070;2023-09-08T05:25:56;100366.94;;;23.41;59.37
63739;BME280;68816;45.558;10.070;2023-09-08T05:28:22;100368.09;;;23.40;59.89
63739;BME280;68816;45.558;10.070;2023-09-08T05:30:47;100361.81;;;23.43;59.41
63739;BME280;68816;45.558;10.070;2023-09-08T05:33:12;100374.25;;;23.42;59.88
63739;BME280;68816;45.558;10.070;2023-09-08T05:35:38;100376.34;;;23.36;60.13
63739;BME280;68816;45.558;10.070;2023-09-08T05:38:03;100376.56;;;23.40;59.30
63739;BME280;68816;45.558;10.070;2023-09-08T05:40:30;100372.59;;;23.41;59.07
63739;BME280;68816;45.558;10.070;2023-09-08T05:42:55;100370.94;;;23.53;59.42
63739;BME280;68816;45.558;10.070;2023-09-08T05:45:21;100374.47;;;23.59;59.41
63739;BME280;68816;45.558;10.070;2023-09-08T05:47:47;100380.13;;;23.59;59.17
63739;BME280;68816;45.558;10.070;2023-09-08T05:50:14;100378.47;;;23.58;59.25
63739;BME280;68816;45.558;10.070;2023-09-08T05:52:40;100382.75;;;23.69;58.44
63739;BME280;68816;45.558;10.070;2023-09-08T05:55:05;100380.97;;;23.73;56.95
63739;BME280;68816;45.558;10.070;2023-09-08T05:57:31;100377.00;;;23.74;55.88
63739;BME280;68816;45.558;10.070;2023-09-08T05:59:57;100380.97;;;23.87;55.41
63739;BME280;68816;45.558;10.070;2023-09-08T06:02:22;100387.75;;;23.72;56.42
63739;BME280;68816;45.558;10.070;2023-09-08T06:04:48;100387.22;;;23.84;54.89
63739;BME280;68816;45.558;10.070;2023-09-08T06:07:13;100376.66;;;23.89;53.93
63739;BME280;68816;45.558;10.070;2023-09-08T06:09:39;100388.88;;;23.98;54.31
63739;BME280;68816;45.558;10.070;2023-09-08T06:12:04;100396.53;;;23.84;54.40
63739;BME280;68816;45.558;10.070;2023-09-08T06:14:30;100398.09;;;23.90;54.73
63739;BME280;68816;45.558;10.070;2023-09-08T06:16:55;100393.09;;;23.87;54.55
63739;BME280;68816;45.558;10.070;2023-09-08T06:19:21;100384.06;;;23.99;53.63
63739;BME280;68816;45.558;10.070;2023-09-08T06:21:46;100383.72;;;24.00;52.92
63739;BME280;68816;45.558;10.070;2023-09-08T06:24:12;100387.38;;;24.14;53.18
63739;BME280;68816;45.558;10.070;2023-09-08T06:26:37;100395.78;;;24.20;53.66
63739;BME280;68816;45.558;10.070;2023-09-08T06:29:03;100392.63;;;24.21;54.05
63739;BME280;68816;45.558;10.070;2023-09-08T06:31:29;100400.03;;;24.31;53.40
63739;BME280;68816;45.558;10.070;2023-09-08T06:33:54;100398.31;;;24.43;53.47
63739;BME280;68816;45.558;10.070;2023-09-08T06:36:20;100390.94;;;24.56;53.13
63739;BME280;68816;45.558;10.070;2023-09-08T06:38:45;100403.66;;;24.67;51.51
63739;BME280;68816;45.558;10.070;2023-09-08T06:41:11;100400.03;;;24.75;52.27
63739;BME280;68816;45.558;10.070;2023-09-08T06:43:37;100400.13;;;24.84;51.45
63739;BME280;68816;45.558;10.070;2023-09-08T06:46:03;100404.91;;;24.97;51.50
63739;BME280;68816;45.558;10.070;2023-09-08T06:48:29;100397.44;;;25.01;50.35
63739;BME280;68816;45.558;10.070;2023-09-08T06:50:55;100398.81;;;25.12;50.90
63739;BME280;68816;45.558;10.070;2023-09-08T06:53:22;100399.50;;;25.18;50.81
63739;BME280;68816;45.558;10.070;2023-09-08T06:55:47;100403.88;;;25.24;51.08
63739;BME280;68816;45.558;10.070;2023-09-08T06:58:13;100409.78;;;25.36;51.54
63739;BME280;68816;45.558;10.070;2023-09-08T07:00:40;100402.47;;;25.44;51.21
63739;BME280;68816;45.558;10.070;2023-09-08T07:03:06;100401.81;;;25.47;50.67
63739;BME280;68816;45.558;10.070;2023-09-08T07:05:33;100399.50;;;25.49;50.64
63739;BME280;68816;45.558;10.070;2023-09-08T07:07:59;100400.59;;;25.61;52.88
63739;BME280;68816;45.558;10.070;2023-09-08T07:10:24;100394.22;;;25.56;50.46
63739;BME280;68816;45.558;10.070;2023-09-08T07:12:50;100399.97;;;25.82;50.42
63739;BME280;68816;45.558;10.070;2023-09-08T07:15:15;100403.47;;;25.87;50.49
63739;BME280;68816;45.558;10.070;2023-09-08T07:17:41;100408.09;;;25.74;49.75
63739;BME280;68816;45.558;10.070;2023-09-08T07:20:07;100404.84;;;25.90;49.92
63739;BME280;68816;45.558;10.070;2023-09-08T07:22:33;100401.84;;;25.95;50.03
63739;BME280;68816;45.558;10.070;2023-09-08T07:24:58;100402.38;;;26.05;50.62
63739;BME280;68816;45.558;10.070;2023-09-08T07:27:24;100400.84;;;25.99;49.78
63739;BME280;68816;45.558;10.070;2023-09-08T07:29:49;100400.19;;;26.02;48.51
63739;BME280;68816;45.558;10.070;2023-09-08T07:32:16;100404.03;;;26.06;50.00
63739;BME280;68816;45.558;10.070;2023-09-08T07:34:41;100402.38;;;26.14;50.55
63739;BME280;68816;45.558;10.070;2023-09-08T07:37:07;100397.19;;;26.16;50.54
63739;BME280;68816;45.558;10.070;2023-09-08T07:39:32;100404.13;;;26.32;50.35
63739;BME280;68816;45.558;10.070;2023-09-08T07:41:58;100397.44;;;26.37;48.49
63739;BME280;68816;45.558;10.070;2023-09-08T07:44:24;100394.44;;;26.42;49.90
63739;BME280;68816;45.558;10.070;2023-09-08T07:46:49;100392.59;;;26.29;48.45
63739;BME280;68816;45.558;10.070;2023-09-08T07:49:17;100397.94;;;26.47;46.71
63739;BME280;68816;45.558;10.070;2023-09-08T07:51:44;100393.59;;;26.58;46.96
63739;BME280;68816;45.558;10.070;2023-09-08T07:54:10;100397.09;;;26.73;46.69
63739;BME280;68816;45.558;10.070;2023-09-08T07:56:36;100396.91;;;26.78;44.84
63739;BME280;68816;45.558;10.070;2023-09-08T07:59:01;100398.75;;;26.82;45.19
63739;BME280;68816;45.558;10.070;2023-09-08T08:01:27;100401.91;;;26.81;44.06
63739;BME280;68816;45.558;10.070;2023-09-08T08:03:52;100393.91;;;26.83;43.43
63739;BME280;68816;45.558;10.070;2023-09-08T08:06:18;100398.06;;;26.85;44.14
63739;BME280;68816;45.558;10.070;2023-09-08T08:08:43;100405.91;;;27.06;42.36
63739;BME280;68816;45.558;10.070;2023-09-08T08:11:11;100395.06;;;26.99;41.89
63739;BME280;68816;45.558;10.070;2023-09-08T08:13:37;100397.88;;;27.16;42.54
63739;BME280;68816;45.558;10.070;2023-09-08T08:16:02;100397.53;;;27.18;41.73
63739;BME280;68816;45.558;10.070;2023-09-08T08:18:28;100390.88;;;27.14;42.59
63739;BME280;68816;45.558;10.070;2023-09-08T08:20:53;100391.75;;;27.44;42.49
63739;BME280;68816;45.558;10.070;2023-09-08T08:23:19;100396.25;;;27.45;42.76
63739;BME280;68816;45.558;10.070;2023-09-08T08:25:44;100400.91;;;27.49;42.43
63739;BME280;68816;45.558;10.070;2023-09-08T08:28:09;100400.09;;;27.49;41.54
63739;BME280;68816;45.558;10.070;2023-09-08T08:30:35;100397.25;;;27.57;43.10
63739;BME280;68816;45.558;10.070;2023-09-08T08:33:01;100392.38;;;27.66;41.52
63739;BME280;68816;45.558;10.070;2023-09-08T08:35:26;100401.59;;;27.84;41.43
63739;BME280;68816;45.558;10.070;2023-09-08T08:37:52;100389.25;;;27.80;40.47
63739;BME280;68816;45.558;10.070;2023-09-08T08:40:17;100390.75;;;27.86;42.40
63739;BME280;68816;45.558;10.070;2023-09-08T08:42:43;100388.06;;;27.60;39.82
63739;BME280;68816;45.558;10.070;2023-09-08T08:45:10;100389.25;;;27.80;39.46
63739;BME280;68816;45.558;10.070;2023-09-08T08:47:37;100387.38;;;27.84;39.18
63739;BME280;68816;45.558;10.070;2023-09-08T08:50:03;100379.47;;;27.98;37.36
63739;BME280;68816;45.558;10.070;2023-09-08T08:52:29;100378.41;;;28.32;37.91
63739;BME280;68816;45.558;10.070;2023-09-08T08:54:55;100376.53;;;28.15;39.23
63739;BME280;68816;45.558;10.070;2023-09-08T08:57:22;100372.28;;;28.22;38.04
63739;BME280;68816;45.558;10.070;2023-09-08T08:59:51;100377.84;;;28.39;38.26
63739;BME280;68816;45.558;10.070;2023-09-08T09:02:18;100377.63;;;28.44;38.38
63739;BME280;68816;45.558;10.070;2023-09-08T09:04:44;100374.22;;;28.71;38.92
63739;BME280;68816;45.558;10.070;2023-09-08T09:07:09;100372.56;;;28.70;38.18
63739;BME280;68816;45.558;10.070;2023-09-08T09:09:36;100375.19;;;28.54;38.24
63739;BME280;68816;45.558;10.070;2023-09-08T09:12:01;100371.88;;;28.32;37.98
63739;BME280;68816;45.558;10.070;2023-09-08T09:14:31;100363.28;;;28.40;37.75
63739;BME280;68816;45.558;10.070;2023-09-08T09:16:57;100369.53;;;28.34;37.53
63739;BME280;68816;45.558;10.070;2023-09-08T09:19:23;100373.94;;;28.43;37.47
63739;BME280;68816;45.558;10.070;2023-09-08T09:21:57;100369.88;;;28.53;38.86
63739;BME280;68816;45.558;10.070;2023-09-08T09:27:01;100364.66;;;28.55;38.15
63739;BME280;68816;45.558;10.070;2023-09-08T09:29:27;100362.63;;;28.55;38.25
63739;BME280;68816;45.558;10.070;2023-09-08T09:34:22;100355.38;;;29.24;37.08
63739;BME280;68816;45.558;10.070;2023-09-08T09:36:49;100354.78;;;29.06;36.84
63739;BME280;68816;45.558;10.070;2023-09-08T09:39:19;100356.34;;;29.16;36.20
63739;BME280;68816;45.558;10.070;2023-09-08T09:41:46;100352.84;;;29.55;36.51
63739;BME280;68816;45.558;10.070;2023-09-08T09:44:12;100349.09;;;29.18;36.28
63739;BME280;68816;45.558;10.070;2023-09-08T09:46:37;100349.91;;;29.07;36.63
63739;BME280;68816;45.558;10.070;2023-09-08T09:49:03;100342.94;;;29.16;36.95
63739;BME280;68816;45.558;10.070;2023-09-08T09:51:29;100345.41;;;29.06;35.84
63739;BME280;68816;45.558;10.070;2023-09-08T09:53:55;100356.88;;;29.54;35.67
63739;BME280;68816;45.558;10.070;2023-09-08T09:56:22;100347.44;;;29.17;36.01
63739;BME280;68816;45.558;10.070;2023-09-08T09:58:47;100346.66;;;29.65;35.16
63739;BME280;68816;45.558;10.070;2023-09-08T10:01:14;100339.53;;;29.71;34.33
63739;BME280;68816;45.558;10.070;2023-09-08T10:03:39;100340.38;;;29.96;33.85
63739;BME280;68816;45.558;10.070;2023-09-08T10:06:05;100342.63;;;30.03;33.66
63739;BME280;68816;45.558;10.070;2023-09-08T10:08:34;100341.91;;;29.94;33.76
63739;BME280;68816;45.558;10.070;2023-09-08T10:11:05;100338.59;;;29.79;33.64
63739;BME280;68816;45.558;10.070;2023-09-08T10:13:35;100337.19;;;29.98;33.36
63739;BME280;68816;45.558;10.070;2023-09-08T10:16:05;100339.69;;;29.63;34.89
63739;BME280;68816;45.558;10.070;2023-09-08T10:18:33;100342.88;;;29.98;33.46
63739;BME280;68816;45.558;10.070;2023-09-08T10:21:03;100334.31;;;29.86;34.45
63739;BME280;68816;45.558;10.070;2023-09-08T10:23:40;100334.69;;;30.36;34.86
63739;BME280;68816;45.558;10.070;2023-09-08T10:26:10;100326.59;;;30.50;33.58
63739;BME280;68816;45.558;10.070;2023-09-08T10:28:37;100319.19;;;30.77;32.67
63739;BME280;68816;45.558;10.070;2023-09-08T10:31:03;100323.28;;;30.92;31.83
63739;BME280;68816;45.558;10.070;2023-09-08T10:33:31;100317.56;;;30.92;31.53
63739;BME280;68816;45.558;10.070;2023-09-08T10:35:57;100310.56;;;30.89;32.73
63739;BME280;68816;45.558;10.070;2023-09-08T10:38:33;100319.66;;;30.79;32.39
63739;BME280;68816;45.558;10.070;2023-09-08T10:43:46;100311.03;;;30.36;32.96
63739;BME280;68816;45.558;10.070;2023-09-08T10:46:24;100293.91;;;30.64;32.67
63739;BME280;68816;45.558;10.070;2023-09-08T10:48:53;100304.63;;;30.67;32.68
63739;BME280;68816;45.558;10.070;2023-09-08T10:51:20;100310.13;;;30.47;32.33
63739;BME280;68816;45.558;10.070;2023-09-08T10:53:48;100298.63;;;30.72;32.70
63739;BME280;68816;45.558;10.070;2023-09-08T10:56:15;100302.09;;;30.37;32.51
63739;BME280;68816;45.558;10.070;2023-09-08T10:58:40;100306.66;;;30.26;33.02
63739;BME280;68816;45.558;10.070;2023-09-08T11:01:07;100297.75;;;30.83;33.11
63739;BME280;68816;45.558;10.070;2023-09-08T11:06:08;100302.09;;;30.49;32.67
63739;BME280;68816;45.558;10.070;2023-09-08T11:08:36;100300.84;;;30.63;31.96
63739;BME280;68816;45.558;10.070;2023-09-08T11:11:01;100299.75;;;30.67;32.56
63739;BME280;68816;45.558;10.070;2023-09-08T11:13:27;100299.22;;;30.93;31.88
63739;BME280;68816;45.558;10.070;2023-09-08T11:15:54;100296.56;;;31.00;32.06
63739;BME280;68816;45.558;10.070;2023-09-08T11:18:46;100298.19;;;31.45;33.66
63739;BME280;68816;45.558;10.070;2023-09-08T11:21:11;100295.69;;;31.59;31.46
63739;BME280;68816;45.558;10.070;2023-09-08T11:23:37;100291.03;;;31.70;32.27
63739;BME280;68816;45.558;10.070;2023-09-08T11:26:03;100285.91;;;31.44;31.10
63739;BME280;68816;45.558;10.070;2023-09-08T11:28:29;100291.81;;;31.35;30.88
63739;BME280;68816;45.558;10.070;2023-09-08T11:30:55;100294.78;;;31.39;31.69
63739;BME280;68816;45.558;10.070;2023-09-08T11:33:22;100291.78;;;31.51;32.16
63739;BME280;68816;45.558;10.070;2023-09-08T11:35:54;100299.97;;;31.84;31.28
63739;BME280;68816;45.558;10.070;2023-09-08T11:38:26;100296.69;;;31.19;31.61
63739;BME280;68816;45.558;10.070;2023-09-08T11:40:53;100287.56;;;31.14;31.90
63739;BME280;68816;45.558;10.070;2023-09-08T11:43:19;100288.91;;;31.51;31.94
63739;BME280;68816;45.558;10.070;2023-09-08T11:45:45;100285.34;;;31.38;31.88
63739;BME280;68816;45.558;10.070;2023-09-08T11:48:10;100295.88;;;31.19;31.78
63739;BME280;68816;45.558;10.070;2023-09-08T11:50:36;100286.16;;;31.55;30.84
63739;BME280;68816;45.558;10.070;2023-09-08T11:53:01;100285.97;;;31.79;30.99
63739;BME280;68816;45.558;10.070;2023-09-08T11:55:28;100286.06;;;32.02;31.47
63739;BME280;68816;45.558;10.070;2023-09-08T11:57:54;100288.25;;;31.58;31.19
63739;BME280;68816;45.558;10.070;2023-09-08T12:00:23;100272.19;;;32.19;30.00
63739;BME280;68816;45.558;10.070;2023-09-08T12:02:49;100281.63;;;32.62;30.27
63739;BME280;68816;45.558;10.070;2023-09-08T12:05:22;100273.03;;;31.85;31.02
63739;BME280;68816;45.558;10.070;2023-09-08T12:07:53;100275.88;;;31.85;31.30
63739;BME280;68816;45.558;10.070;2023-09-08T12:10:19;100280.13;;;31.91;31.20
63739;BME280;68816;45.558;10.070;2023-09-08T12:12:52;100266.91;;;32.41;30.63
63739;BME280;68816;45.558;10.070;2023-09-08T12:15:41;100269.91;;;32.29;29.61
63739;BME280;68816;45.558;10.070;2023-09-08T12:18:09;100268.28;;;32.66;29.45
63739;BME280;68816;45.558;10.070;2023-09-08T12:20:36;100257.47;;;32.79;29.17
63739;BME280;68816;45.558;10.070;2023-09-08T12:23:03;100257.41;;;32.17;30.18
63739;BME280;68816;45.558;10.070;2023-09-08T12:25:29;100253.94;;;32.66;30.58
63739;BME280;68816;45.558;10.070;2023-09-08T12:27:57;100254.56;;;32.37;30.45
63739;BME280;68816;45.558;10.070;2023-09-08T12:30:23;100252.25;;;32.65;30.11
63739;BME280;68816;45.558;10.070;2023-09-08T12:32:58;100251.38;;;32.42;29.71
63739;BME280;68816;45.558;10.070;2023-09-08T12:35:25;100246.41;;;32.39;29.81
63739;BME280;68816;45.558;10.070;2023-09-08T12:40:23;100242.13;;;32.90;30.20
63739;BME280;68816;45.558;10.070;2023-09-08T12:42:49;100236.25;;;32.83;29.18
63739;BME280;68816;45.558;10.070;2023-09-08T12:45:15;100243.25;;;32.86;29.17
63739;BME280;68816;45.558;10.070;2023-09-08T12:47:40;100242.25;;;32.55;29.18
63739;BME280;68816;45.558;10.070;2023-09-08T12:50:06;100230.91;;;32.82;29.04
63739;BME280;68816;45.558;10.070;2023-09-08T12:52:32;100227.66;;;32.83;29.30